Time;durP1;ratioP1;P1;durP2;ratioP2;P2;SDS_P1;SDS_P2;PMS_P1;PMS_P2;Temp;Humidity;BMP_temperature;BMP_pressure;BME280_temperature;BME280_humidity;BME280_pressure;Samples;Min_cycle;Max_cycle;Signal;HPM_P1;HPM_P2
2023/04/03 00:01:11;;;;;;;345.03;301.93;;;4.80;99.90;;;;;;5089680;28;20211;-51
2023/04/03 00:03:41;;;;;;;315.53;275.93;;;4.70;99.90;;;;;;5089682;28;20277;-51
2023/04/03 00:06:10;;;;;;;340.70;281.73;;;4.70;99.90;;;;;;5089563;28;20715;-51
2023/04/03 00:08:39;;;;;;;134.20;121.00;;;4.70;99.90;;;;;;5089648;28;20235;-51
2023/04/03 00:11:08;;;;;;;440.30;291.20;;;4.70;99.90;;;;;;5089317;28;20236;-51
2023/04/03 00:13:36;;;;;;;256.13;231.90;;;4.70;99.90;;;;;;5089256;28;20661;-51
2023/04/03 00:16:04;;;;;;;179.77;165.37;;;4.70;99.90;;;;;;5089460;28;20297;-52
2023/04/03 00:18:32;;;;;;;476.37;301.27;;;4.70;99.90;;;;;;5084374;28;20279;-52
2023/04/03 00:21:02;;;;;;;1091.93;456.10;;;4.60;99.90;;;;;;5077125;28;20293;-52
2023/04/03 00:23:30;;;;;;;1855.83;666.83;;;4.60;99.90;;;;;;5087868;28;20224;-51
2023/04/03 00:25:58;;;;;;;368.50;217.57;;;4.50;99.90;;;;;;5089396;28;20295;-51
2023/04/03 00:28:26;;;;;;;133.93;121.10;;;4.50;99.90;;;;;;5089037;28;20228;-52
2023/04/03 00:30:54;;;;;;;267.30;242.43;;;4.50;99.90;;;;;;5084896;28;20246;-51
2023/04/03 00:33:24;;;;;;;264.00;240.97;;;4.50;99.90;;;;;;5089005;28;20206;-51
2023/04/03 00:35:52;;;;;;;1999.90;935.17;;;4.40;99.90;;;;;;5086160;28;20216;-51
2023/04/03 00:38:22;;;;;;;775.00;390.77;;;4.50;99.90;;;;;;5077774;28;20231;-51
2023/04/03 00:40:51;;;;;;;630.23;403.50;;;4.40;99.90;;;;;;5088946;28;20295;-52
2023/04/03 00:43:21;;;;;;;188.83;173.83;;;4.30;99.90;;;;;;5075796;28;20229;-51
2023/04/03 00:45:51;;;;;;;1999.90;749.50;;;4.30;99.90;;;;;;5061485;28;20301;-51
2023/04/03 00:48:23;;;;;;;545.43;294.90;;;4.20;99.90;;;;;;5088933;28;20229;-51
2023/04/03 00:50:52;;;;;;;194.70;177.80;;;4.20;99.90;;;;;;5082798;28;20214;-51
2023/04/03 00:53:25;;;;;;;207.93;192.10;;;4.10;99.90;;;;;;5080806;28;20824;-51
2023/04/03 00:55:56;;;;;;;839.93;297.60;;;4.10;99.90;;;;;;5088666;28;20232;-51
2023/04/03 00:58:32;;;;;;;159.83;146.63;;;4.00;99.90;;;;;;5087661;28;20270;-51
2023/04/03 01:01:05;;;;;;;1999.90;999.90;;;3.90;99.90;;;;;;5087103;28;20292;-51
2023/04/03 01:03:33;;;;;;;280.70;253.27;;;3.90;99.90;;;;;;5080790;28;20228;-52
2023/04/03 01:06:01;;;;;;;1819.50;554.33;;;3.80;99.90;;;;;;5087342;28;20214;-51
2023/04/03 01:08:31;;;;;;;127.63;114.87;;;3.70;99.90;;;;;;5079358;28;20293;-51
2023/04/03 01:10:59;;;;;;;228.67;201.80;;;3.70;99.90;;;;;;5086169;28;20310;-51
2023/04/03 01:13:29;;;;;;;652.67;348.90;;;3.60;99.90;;;;;;5088388;28;20217;-51
2023/04/03 01:15:57;;;;;;;356.20;317.17;;;3.60;99.90;;;;;;5084419;28;20210;-51
2023/04/03 01:18:26;;;;;;;1050.67;381.37;;;3.50;99.90;;;;;;5088508;28;20221;-52
2023/04/03 01:21:15;;;;;;;398.97;255.70;;;3.50;99.90;;;;;;5075586;28;20266;-51
2023/04/03 01:23:55;;;;;;;326.30;265.20;;;3.50;99.90;;;;;;5074492;28;20303;-51
2023/04/03 01:26:23;;;;;;;1313.17;693.63;;;3.40;99.90;;;;;;5088473;28;20244;-51
2023/04/03 01:28:51;;;;;;;233.03;212.67;;;3.30;99.90;;;;;;5088251;28;20232;-51
2023/04/03 01:31:23;;;;;;;1298.00;480.57;;;3.30;99.90;;;;;;5088375;28;20293;-51
2023/04/03 01:33:53;;;;;;;367.13;301.63;;;3.20;99.90;;;;;;5077908;28;20209;-51
2023/04/03 01:36:24;;;;;;;1999.90;899.40;;;3.20;99.90;;;;;;5088168;28;20683;-51
2023/04/03 01:38:52;;;;;;;1999.90;888.77;;;3.10;99.90;;;;;;5088023;28;20206;-51
2023/04/03 01:41:21;;;;;;;1585.00;721.90;;;3.10;99.90;;;;;;5088268;28;20214;-51
2023/04/03 01:43:50;;;;;;;1308.37;515.17;;;3.00;99.90;;;;;;5088252;28;20311;-50
2023/04/03 01:46:19;;;;;;;1641.63;641.00;;;3.10;99.90;;;;;;5082659;28;20290;-51
2023/04/03 01:48:48;;;;;;;489.70;443.33;;;3.00;99.90;;;;;;5088049;28;21535;-52
2023/04/03 01:51:17;;;;;;;704.33;452.03;;;3.00;99.90;;;;;;5088399;28;20622;-51
2023/04/03 01:53:45;;;;;;;400.13;367.23;;;2.90;99.90;;;;;;5080836;28;20681;-52
2023/04/03 01:56:13;;;;;;;555.73;505.60;;;2.90;99.90;;;;;;5087932;28;20304;-51
2023/04/03 01:58:41;;;;;;;334.83;312.00;;;2.90;99.90;;;;;;5087822;28;20308;-51
2023/04/03 02:01:09;;;;;;;850.37;546.07;;;2.80;99.90;;;;;;5088108;28;20289;-51
2023/04/03 02:03:37;;;;;;;591.57;433.57;;;2.80;99.90;;;;;;5068337;28;20218;-51
2023/04/03 02:06:06;;;;;;;472.03;433.57;;;2.80;99.90;;;;;;5067476;28;20204;-51
2023/04/03 02:08:35;;;;;;;1961.80;735.03;;;2.70;99.90;;;;;;5067811;28;20290;-52
2023/04/03 02:11:03;;;;;;;1067.90;567.20;;;2.70;99.90;;;;;;5070271;28;20684;-51
2023/04/03 02:13:31;;;;;;;362.27;332.30;;;2.60;99.90;;;;;;5071247;28;20790;-51
2023/04/03 02:16:00;;;;;;;1208.90;575.43;;;2.60;99.90;;;;;;5070984;28;20594;-51
2023/04/03 02:18:28;;;;;;;425.27;391.37;;;2.60;99.90;;;;;;5071103;28;20289;-50
2023/04/03 02:20:56;;;;;;;1999.90;975.47;;;2.60;99.90;;;;;;5071128;28;20214;-51
2023/04/03 02:23:24;;;;;;;614.87;425.90;;;2.50;99.90;;;;;;5071164;28;20578;-51
2023/04/03 02:25:53;;;;;;;1999.90;999.90;;;2.50;99.90;;;;;;5071349;28;20606;-51
2023/04/03 02:28:21;;;;;;;1999.90;939.57;;;2.40;99.90;;;;;;5070864;28;20236;-50
2023/04/03 02:30:49;;;;;;;543.43;485.77;;;2.40;99.90;;;;;;5071032;28;20207;-51
2023/04/03 02:33:17;;;;;;;530.70;435.47;;;2.40;99.90;;;;;;5070670;28;20667;-51
2023/04/03 02:35:52;;;;;;;634.87;507.50;;;2.30;99.90;;;;;;5070826;28;20305;-51
2023/04/03 02:38:20;;;;;;;488.03;441.50;;;2.30;99.90;;;;;;5070706;28;20225;-52
2023/04/03 02:40:48;;;;;;;1999.90;934.63;;;2.30;99.90;;;;;;5070896;28;20315;-51
2023/04/03 02:43:18;;;;;;;1999.90;847.87;;;2.20;99.90;;;;;;5070667;28;20239;-51
2023/04/03 02:45:46;;;;;;;1999.90;844.33;;;2.20;99.90;;;;;;5070432;28;20237;-51
2023/04/03 02:48:16;;;;;;;398.73;360.27;;;2.10;99.90;;;;;;5069951;28;20240;-52
2023/04/03 02:50:44;;;;;;;594.27;539.67;;;2.10;99.90;;;;;;5070924;28;20227;-52
2023/04/03 02:53:12;;;;;;;940.03;573.53;;;2.10;99.90;;;;;;5070712;28;20248;-51
2023/04/03 02:55:40;;;;;;;1318.73;535.60;;;2.10;99.90;;;;;;5070687;28;20216;-51
2023/04/03 02:58:08;;;;;;;387.83;357.03;;;2.00;99.90;;;;;;5070258;28;20694;-51
2023/04/03 03:00:38;;;;;;;537.13;351.67;;;2.00;99.90;;;;;;5070446;28;20242;-50
2023/04/03 03:03:06;;;;;;;692.20;426.03;;;1.90;99.90;;;;;;5070535;28;20236;-51
2023/04/03 03:05:35;;;;;;;444.80;403.97;;;1.90;99.90;;;;;;5069987;28;20233;-51
2023/04/03 03:08:03;;;;;;;306.20;281.27;;;1.90;99.90;;;;;;5070209;28;20227;-51
2023/04/03 03:10:31;;;;;;;347.20;228.47;;;1.80;99.90;;;;;;5070207;28;20201;-51
2023/04/03 03:12:59;;;;;;;551.23;316.20;;;1.80;99.90;;;;;;5070304;28;20304;-52
2023/04/03 03:15:27;;;;;;;645.30;315.33;;;1.80;99.90;;;;;;5070683;28;20233;-51
2023/04/03 03:17:56;;;;;;;1218.33;410.97;;;1.80;99.90;;;;;;5070090;28;20226;-52
2023/04/03 03:20:25;;;;;;;1971.40;621.77;;;1.70;99.90;;;;;;5070506;28;20221;-52
2023/04/03 03:22:53;;;;;;;576.00;351.30;;;1.70;99.90;;;;;;5069283;28;20240;-51
2023/04/03 03:25:21;;;;;;;834.57;420.03;;;1.70;99.90;;;;;;5069762;28;20304;-51
2023/04/03 03:27:49;;;;;;;1832.80;666.53;;;1.60;99.90;;;;;;5070270;28;20312;-51
2023/04/03 03:30:17;;;;;;;1143.23;544.33;;;1.60;99.90;;;;;;5070083;28;20254;-51
2023/04/03 03:32:45;;;;;;;1282.87;594.57;;;1.60;99.90;;;;;;5070151;28;20211;-51
2023/04/03 03:35:15;;;;;;;1860.13;490.47;;;1.60;99.90;;;;;;5070277;28;20224;-51
2023/04/03 03:37:43;;;;;;;855.90;313.40;;;1.60;99.90;;;;;;5069622;28;20316;-52
2023/04/03 03:40:12;;;;;;;864.40;376.77;;;1.50;99.90;;;;;;5070208;28;20280;-52
2023/04/03 03:42:41;;;;;;;289.63;249.93;;;1.50;99.90;;;;;;5070098;28;20240;-51
2023/04/03 03:45:10;;;;;;;320.77;291.93;;;1.50;99.90;;;;;;5069855;28;20597;-51
2023/04/03 03:47:38;;;;;;;401.80;280.93;;;1.50;99.90;;;;;;5069442;28;20307;-51
2023/04/03 03:50:07;;;;;;;227.33;204.77;;;1.40;99.90;;;;;;5069532;28;20200;-51
2023/04/03 03:52:36;;;;;;;806.17;566.63;;;1.40;99.90;;;;;;5069491;28;20209;-51
2023/04/03 03:55:05;;;;;;;1999.90;553.90;;;1.40;99.90;;;;;;5069557;28;20315;-51
2023/04/03 03:57:33;;;;;;;357.47;297.13;;;1.30;99.90;;;;;;5069814;28;20597;-51
2023/04/03 04:00:01;;;;;;;740.70;385.63;;;1.40;99.90;;;;;;5069565;28;20285;-51
2023/04/03 04:02:29;;;;;;;1999.90;752.60;;;1.30;99.90;;;;;;5069356;28;20205;-51
2023/04/03 04:04:57;;;;;;;1999.90;662.67;;;1.30;99.90;;;;;;5069121;28;20260;-51
2023/04/03 04:07:27;;;;;;;727.03;395.40;;;1.30;99.90;;;;;;5069603;28;20226;-51
2023/04/03 04:09:57;;;;;;;1999.90;701.30;;;1.30;99.90;;;;;;5069563;28;20298;-51
2023/04/03 04:12:25;;;;;;;1581.07;503.50;;;1.20;99.90;;;;;;5069214;28;20210;-51
2023/04/03 04:14:53;;;;;;;1122.30;362.00;;;1.20;99.90;;;;;;5069124;28;20209;-51
2023/04/03 04:17:21;;;;;;;1999.90;645.43;;;1.20;99.90;;;;;;5068945;28;20232;-52
2023/04/03 04:19:49;;;;;;;1999.90;532.10;;;1.10;99.90;;;;;;5068507;28;20230;-51
2023/04/03 04:22:17;;;;;;;1442.13;484.97;;;1.10;99.90;;;;;;5069096;28;20248;-51
2023/04/03 04:24:45;;;;;;;1716.50;532.10;;;1.10;99.90;;;;;;5068888;28;20223;-51
2023/04/03 04:27:15;;;;;;;1999.90;656.23;;;1.10;99.90;;;;;;5069130;28;20306;-51
2023/04/03 04:29:43;;;;;;;1866.90;515.57;;;1.10;99.90;;;;;;5068009;28;20660;-51
2023/04/03 04:32:11;;;;;;;669.80;288.13;;;1.00;99.90;;;;;;5068639;28;20296;-51
2023/04/03 04:34:39;;;;;;;733.93;270.33;;;1.00;99.90;;;;;;5069163;28;20212;-51
2023/04/03 04:37:07;;;;;;;859.53;386.50;;;1.00;99.90;;;;;;5068923;28;20235;-50
2023/04/03 04:39:35;;;;;;;1521.83;432.23;;;0.90;99.90;;;;;;5068888;28;20685;-51
2023/04/03 04:42:03;;;;;;;362.17;251.07;;;0.90;99.90;;;;;;5068941;28;20627;-51
2023/04/03 04:44:33;;;;;;;1576.70;559.63;;;0.90;99.90;;;;;;5068769;28;20710;-51
2023/04/03 04:47:01;;;;;;;1999.90;851.27;;;0.90;99.90;;;;;;5069210;28;20225;-51
2023/04/03 04:49:29;;;;;;;616.57;295.73;;;0.80;99.90;;;;;;5069471;28;20583;-52
2023/04/03 04:51:57;;;;;;;1611.83;502.43;;;0.80;99.90;;;;;;5068965;28;20213;-51
2023/04/03 04:54:25;;;;;;;1999.90;771.83;;;0.80;99.90;;;;;;5069019;28;20695;-51
2023/04/03 04:56:53;;;;;;;382.40;238.53;;;0.80;99.90;;;;;;5068638;28;20320;-52
2023/04/03 04:59:21;;;;;;;1999.90;682.17;;;0.80;99.90;;;;;;5068724;28;20983;-52
2023/04/03 05:01:50;;;;;;;1944.60;549.77;;;0.80;99.90;;;;;;5068745;28;20212;-51
2023/04/03 05:04:19;;;;;;;1764.73;487.50;;;0.80;99.90;;;;;;5069279;28;20214;-51
2023/04/03 05:06:47;;;;;;;1999.90;719.57;;;0.80;99.90;;;;;;5068458;28;20664;-52
2023/04/03 05:09:15;;;;;;;1980.50;589.70;;;0.70;99.90;;;;;;5069328;28;20206;-51
2023/04/03 05:11:43;;;;;;;1999.90;636.17;;;0.70;99.90;;;;;;5068480;28;20298;-51
2023/04/03 05:14:11;;;;;;;557.03;273.00;;;0.70;99.90;;;;;;5069053;28;20232;-51
2023/04/03 05:16:39;;;;;;;1999.90;899.13;;;0.80;99.90;;;;;;5068906;28;20235;-51
2023/04/03 05:19:08;;;;;;;1999.90;779.60;;;0.90;99.90;;;;;;5068738;28;20761;-52
2023/04/03 05:21:36;;;;;;;256.47;205.97;;;0.90;99.90;;;;;;5068543;28;20202;-51
2023/04/03 05:24:08;;;;;;;976.70;373.20;;;0.90;99.90;;;;;;5068251;28;20242;-51
2023/04/03 05:26:36;;;;;;;1726.83;478.97;;;1.00;99.90;;;;;;5068643;28;20259;-52
2023/04/03 05:29:04;;;;;;;1939.17;488.80;;;1.00;99.90;;;;;;5068760;28;20671;-51
2023/04/03 05:31:32;;;;;;;1999.90;602.17;;;1.10;99.90;;;;;;5068169;28;20749;-52
2023/04/03 05:34:00;;;;;;;1999.90;605.33;;;1.10;99.90;;;;;;5068841;28;20630;-51
2023/04/03 05:36:30;;;;;;;1999.90;843.60;;;1.20;99.90;;;;;;5066925;28;20220;-51
2023/04/03 05:38:58;;;;;;;1233.93;428.93;;;1.20;99.90;;;;;;5068781;28;20251;-51
2023/04/03 05:41:26;;;;;;;1999.90;566.53;;;1.10;99.90;;;;;;5068564;28;20266;-51
2023/04/03 05:43:54;;;;;;;1999.90;905.90;;;1.20;99.90;;;;;;5068309;28;20360;-52
2023/04/03 05:46:22;;;;;;;1999.90;802.07;;;1.30;99.90;;;;;;5071376;28;20223;-51
2023/04/03 05:48:51;;;;;;;1826.90;494.43;;;1.30;99.90;;;;;;5071838;28;20205;-51
2023/04/03 05:51:20;;;;;;;476.93;304.83;;;1.30;99.90;;;;;;5071905;28;20211;-49
2023/04/03 05:54:01;;;;;;;1999.90;719.97;;;1.30;99.90;;;;;;5072243;28;20216;-51
2023/04/03 05:56:29;;;;;;;1674.20;581.83;;;1.30;99.90;;;;;;5071918;28;20248;-51
2023/04/03 05:58:57;;;;;;;1999.90;814.37;;;1.30;99.90;;;;;;5071985;28;20295;-50
2023/04/03 06:01:25;;;;;;;1999.90;662.70;;;1.30;99.90;;;;;;5071931;28;20214;-51
2023/04/03 06:03:53;;;;;;;1569.30;590.87;;;1.30;99.90;;;;;;5071821;28;20296;-51
2023/04/03 06:06:22;;;;;;;1999.90;625.27;;;1.40;99.90;;;;;;5071813;28;20238;-60
2023/04/03 06:08:51;;;;;;;1153.77;417.17;;;1.30;99.90;;;;;;5071544;28;20851;-51
2023/04/03 06:11:21;;;;;;;1999.90;826.97;;;1.30;99.90;;;;;;5071891;28;20205;-51
2023/04/03 06:13:49;;;;;;;1999.90;995.43;;;1.50;99.90;;;;;;5071687;28;20209;-51
2023/04/03 06:16:18;;;;;;;1999.90;623.43;;;1.50;99.90;;;;;;5071279;28;20231;-51
2023/04/03 06:18:46;;;;;;;1999.90;701.83;;;1.50;99.90;;;;;;5071629;28;20827;-51
2023/04/03 06:21:14;;;;;;;1999.90;772.50;;;1.40;99.90;;;;;;5071455;28;20749;-51
2023/04/03 06:23:42;;;;;;;1999.90;930.97;;;1.40;99.90;;;;;;5071533;28;20201;-51
2023/04/03 06:26:11;;;;;;;1999.90;617.57;;;1.30;99.90;;;;;;5071205;28;20664;-51
2023/04/03 06:28:39;;;;;;;1999.90;974.73;;;1.30;99.90;;;;;;5070978;28;20671;-51
2023/04/03 06:31:08;;;;;;;1999.90;934.03;;;1.50;99.90;;;;;;5071448;28;20237;-51
2023/04/03 06:33:36;;;;;;;1732.83;556.03;;;1.50;99.90;;;;;;5071172;28;20288;-51
2023/04/03 06:36:06;;;;;;;1999.90;950.53;;;1.50;99.90;;;;;;5071442;28;20205;-51
2023/04/03 06:38:35;;;;;;;1999.90;845.73;;;1.60;99.90;;;;;;5070600;28;20299;-51
2023/04/03 06:41:02;;;;;;;1999.90;864.07;;;1.50;99.90;;;;;;5071133;28;20292;-52
2023/04/03 06:43:32;;;;;;;1999.90;973.83;;;1.50;99.90;;;;;;5065238;28;20295;-52
2023/04/03 06:46:01;;;;;;;1999.90;861.60;;;1.80;99.90;;;;;;5067873;28;20239;-52
2023/04/03 06:48:30;;;;;;;1999.90;764.10;;;1.80;99.90;;;;;;5070293;28;20208;-51
2023/04/03 06:50:58;;;;;;;1999.90;994.27;;;1.80;99.90;;;;;;5069951;28;20651;-51
2023/04/03 06:53:26;;;;;;;1999.90;752.53;;;2.10;99.90;;;;;;5070611;28;20666;-51
2023/04/03 06:55:54;;;;;;;1999.90;936.57;;;2.30;99.90;;;;;;5070855;28;20211;-52
2023/04/03 06:58:22;;;;;;;1999.90;999.90;;;2.40;99.90;;;;;;5070771;28;20319;-51
2023/04/03 07:00:51;;;;;;;1999.90;905.57;;;2.50;99.90;;;;;;5071043;28;20221;-51
2023/04/03 07:03:19;;;;;;;1999.90;999.90;;;2.40;99.90;;;;;;5070893;28;20240;-51
2023/04/03 07:05:47;;;;;;;1999.90;933.50;;;2.60;99.90;;;;;;5070815;28;20254;-51
2023/04/03 07:08:15;;;;;;;1999.90;999.90;;;3.20;99.90;;;;;;5070378;28;20325;-51
2023/04/03 07:10:43;;;;;;;1999.90;999.90;;;3.80;99.90;;;;;;5070621;28;21031;-51
2023/04/03 07:13:11;;;;;;;1999.90;999.90;;;4.40;99.90;;;;;;5070467;28;20212;-52
2023/04/03 07:15:39;;;;;;;1999.90;999.90;;;4.60;99.90;;;;;;5069879;28;20313;-52
2023/04/03 07:18:08;;;;;;;1999.90;999.90;;;4.80;99.90;;;;;;5070543;28;20311;-52
2023/04/03 07:20:36;;;;;;;1999.90;999.90;;;4.60;99.90;;;;;;5070615;28;20214;-51
2023/04/03 07:23:04;;;;;;;1999.90;999.90;;;4.50;99.90;;;;;;5070652;28;20204;-51
2023/04/03 07:25:33;;;;;;;1999.90;999.90;;;4.80;99.90;;;;;;5070570;28;20291;-51
2023/04/03 07:28:01;;;;;;;1999.90;999.90;;;5.10;99.90;;;;;;5070067;28;20221;-51
2023/04/03 07:30:29;;;;;;;1999.90;999.90;;;5.00;99.90;;;;;;5070127;28;20950;-51
2023/04/03 07:32:57;;;;;;;1999.90;999.90;;;5.00;99.90;;;;;;5070190;28;20251;-51
2023/04/03 07:35:27;;;;;;;1999.90;999.90;;;5.40;99.90;;;;;;5070277;28;20208;-52
2023/04/03 07:37:55;;;;;;;1999.90;999.90;;;5.50;99.90;;;;;;5070041;28;20339;-52
2023/04/03 07:40:23;;;;;;;1999.90;999.90;;;5.40;99.90;;;;;;5070363;28;20197;-51
2023/04/03 07:42:52;;;;;;;1999.90;999.90;;;5.20;99.90;;;;;;5070201;28;20236;-50
2023/04/03 07:45:20;;;;;;;1999.90;999.90;;;5.10;99.90;;;;;;5069887;28;20236;-51
2023/04/03 07:47:48;;;;;;;1999.90;999.90;;;5.00;99.90;;;;;;5069305;28;20228;-51
2023/04/03 07:50:17;;;;;;;1999.90;999.90;;;5.50;99.90;;;;;;5058262;28;20209;-51
2023/04/03 07:52:46;;;;;;;1999.90;999.90;;;5.10;99.90;;;;;;5061087;28;20223;-52
2023/04/03 07:55:14;;;;;;;1999.90;999.90;;;5.50;99.90;;;;;;5069532;28;20302;-52
2023/04/03 07:57:42;;;;;;;1999.90;999.90;;;5.20;99.90;;;;;;5068904;28;20236;-52
2023/04/03 08:00:12;;;;;;;1999.90;999.90;;;5.40;99.90;;;;;;5069282;28;20236;-51
2023/04/03 08:02:40;;;;;;;1999.90;999.90;;;5.40;99.90;;;;;;5059364;28;20218;-52
2023/04/03 08:05:09;;;;;;;1999.90;999.90;;;5.30;99.90;;;;;;5069898;28;20219;-50
2023/04/03 08:07:38;;;;;;;1999.90;999.90;;;5.20;99.90;;;;;;5068973;28;20231;-51
2023/04/03 08:10:08;;;;;;;1999.90;999.90;;;4.90;99.90;;;;;;5069445;28;20258;-51
2023/04/03 08:12:37;;;;;;;1999.90;999.90;;;4.90;99.90;;;;;;5069414;28;20220;-52
2023/04/03 08:15:06;;;;;;;1750.57;992.60;;;5.30;99.90;;;;;;5069529;28;20327;-51
2023/04/03 08:17:34;;;;;;;1999.90;999.90;;;5.50;99.90;;;;;;5069331;28;20315;-51
2023/04/03 08:20:03;;;;;;;1999.90;999.90;;;5.60;99.90;;;;;;5069518;28;20213;-51
2023/04/03 08:22:31;;;;;;;1999.90;999.90;;;5.60;99.90;;;;;;5069349;28;20209;-52
2023/04/03 08:24:59;;;;;;;1999.90;999.90;;;5.60;99.90;;;;;;5069426;28;20263;-51
2023/04/03 08:27:29;;;;;;;1999.90;999.90;;;5.40;99.90;;;;;;5068367;28;20723;-52
2023/04/03 08:29:57;;;;;;;1999.90;999.90;;;5.20;99.90;;;;;;5069188;28;20236;-52
2023/04/03 08:32:25;;;;;;;1999.90;999.90;;;5.00;99.90;;;;;;5069257;28;20288;-51
2023/04/03 08:34:53;;;;;;;1999.90;999.90;;;4.70;99.90;;;;;;5069400;28;20219;-51
2023/04/03 08:37:21;;;;;;;1999.90;999.90;;;4.60;99.90;;;;;;5068994;28;20225;-51
2023/04/03 08:39:49;;;;;;;1685.83;999.90;;;4.50;99.90;;;;;;5068759;28;20240;-51
2023/04/03 08:42:31;;;;;;;1999.90;999.90;;;4.50;99.90;;;;;;5069167;28;20209;-51
2023/04/03 08:45:06;;;;;;;1999.90;999.90;;;4.50;99.90;;;;;;5069088;28;20205;-51
2023/04/03 08:47:41;;;;;;;1906.03;999.90;;;4.50;99.90;;;;;;5068738;28;20314;-52
2023/04/03 08:50:14;;;;;;;1999.90;999.90;;;4.90;99.90;;;;;;5069082;28;20202;-52
2023/04/03 08:52:46;;;;;;;1856.53;999.90;;;5.00;99.90;;;;;;5067953;28;20234;-51
2023/04/03 08:55:23;;;;;;;1999.90;999.90;;;4.60;99.90;;;;;;5068778;28;20316;-51
2023/04/03 08:57:58;;;;;;;1999.90;999.90;;;4.60;99.90;;;;;;5068659;28;20597;-51
2023/04/03 09:00:31;;;;;;;1999.90;999.90;;;4.60;99.90;;;;;;5068990;28;20232;-51
2023/04/03 09:02:59;;;;;;;1999.90;999.90;;;4.50;99.90;;;;;;5068629;28;20710;-51
2023/04/03 09:05:39;;;;;;;1999.90;999.90;;;4.80;99.90;;;;;;5068828;28;20202;-51
2023/04/03 09:08:18;;;;;;;1999.90;999.90;;;4.90;99.90;;;;;;5067956;28;20355;-51
2023/04/03 09:10:46;;;;;;;1999.90;999.90;;;5.00;99.90;;;;;;5055648;28;20258;-51
2023/04/03 09:13:25;;;;;;;1999.90;999.90;;;4.90;99.90;;;;;;5068202;28;20212;-51
2023/04/03 09:15:57;;;;;;;1999.90;999.90;;;5.20;99.90;;;;;;5068460;28;20201;-51
2023/04/03 09:18:31;;;;;;;1999.90;999.90;;;5.60;99.90;;;;;;5068736;28;20232;-51
2023/04/03 09:21:08;;;;;;;1999.90;999.90;;;5.90;99.90;;;;;;5071453;28;20207;-52
2023/04/03 09:23:43;;;;;;;1999.90;999.90;;;5.90;99.90;;;;;;5072475;28;20239;-52
2023/04/03 09:26:19;;;;;;;1999.90;999.90;;;6.00;99.90;;;;;;5070607;28;20211;-51
2023/04/03 09:28:47;;;;;;;1999.90;999.90;;;6.00;99.90;;;;;;5072116;28;20840;-51
2023/04/03 09:31:25;;;;;;;1999.90;999.90;;;5.90;99.90;;;;;;5072805;28;20903;-51
2023/04/03 09:33:57;;;;;;;1999.90;999.90;;;5.60;99.90;;;;;;5072744;28;20264;-51
2023/04/03 09:36:50;;;;;;;1999.90;999.90;;;5.50;99.90;;;;;;5071840;28;20340;-51
2023/04/03 09:39:20;;;;;;;1999.90;999.90;;;5.50;99.90;;;;;;5057883;28;20680;-51
2023/04/03 09:42:01;;;;;;;1999.90;999.90;;;5.70;99.90;;;;;;5072455;28;20643;-51
2023/04/03 09:44:35;;;;;;;1999.90;999.90;;;5.80;99.90;;;;;;5072170;28;20293;-52
2023/04/03 09:47:20;;;;;;;1999.90;999.90;;;6.00;99.90;;;;;;5072507;28;20252;-52
2023/04/03 09:49:48;;;;;;;1999.90;999.90;;;6.20;99.90;;;;;;5069713;28;20685;-51
2023/04/03 09:52:21;;;;;;;1999.90;999.90;;;6.40;99.90;;;;;;5071914;28;20730;-51
2023/04/03 09:54:50;;;;;;;1999.90;999.90;;;6.40;99.90;;;;;;5072057;28;20239;-51
2023/04/03 09:57:18;;;;;;;1999.90;999.90;;;6.20;99.90;;;;;;5070554;28;20319;-52
2023/04/03 09:59:57;;;;;;;1999.90;999.90;;;6.20;99.90;;;;;;5072068;28;20219;-52
2023/04/03 10:02:35;;;;;;;1999.90;999.90;;;6.40;99.90;;;;;;5071631;28;20226;-52
2023/04/03 10:05:05;;;;;;;1999.90;999.90;;;6.50;99.90;;;;;;5071959;28;20261;-52
2023/04/03 10:07:39;;;;;;;1999.90;999.90;;;6.40;99.90;;;;;;5071246;28;20265;-52
2023/04/03 10:10:22;;;;;;;1999.90;999.90;;;6.30;99.90;;;;;;5071871;28;20280;-51
2023/04/03 10:13:05;;;;;;;1999.90;999.90;;;6.40;99.90;;;;;;5070997;28;20689;-51
2023/04/03 10:15:40;;;;;;;1999.90;999.90;;;6.60;99.90;;;;;;5054845;28;20206;-52
2023/04/03 10:18:27;;;;;;;1999.90;999.90;;;6.80;99.90;;;;;;5067819;28;20224;-51
2023/04/03 10:21:01;;;;;;;1999.90;999.90;;;6.90;99.90;;;;;;5070338;28;20301;-52
2023/04/03 10:23:36;;;;;;;1999.90;999.90;;;6.80;99.90;;;;;;5070191;28;20211;-52
2023/04/03 10:26:17;;;;;;;1999.90;999.90;;;6.60;99.90;;;;;;5070433;28;20265;-51
2023/04/03 10:28:53;;;;;;;1999.90;999.90;;;6.20;99.90;;;;;;5070050;28;20235;-52
2023/04/03 10:31:26;;;;;;;1999.90;999.90;;;6.00;99.90;;;;;;5069560;28;20195;-51
2023/04/03 10:34:05;;;;;;;1999.90;999.90;;;6.10;99.90;;;;;;5069410;28;20212;-51
2023/04/03 10:36:42;;;;;;;1999.90;999.90;;;5.80;99.90;;;;;;5069614;28;20285;-51
2023/04/03 10:39:21;;;;;;;1999.90;999.90;;;6.00;99.90;;;;;;5069822;28;20209;-52
2023/04/03 10:42:01;;;;;;;1999.90;999.90;;;6.00;99.90;;;;;;5070061;28;20204;-52
2023/04/03 10:45:08;;;;;;;1999.90;999.90;;;6.00;99.90;;;;;;5069192;28;20571;-52
2023/04/03 10:47:45;;;;;;;1420.90;840.20;;;5.90;99.90;;;;;;5068913;28;20254;-52
2023/04/03 10:50:30;;;;;;;1999.90;999.90;;;6.10;99.90;;;;;;5069886;28;20206;-51
2023/04/03 10:53:09;;;;;;;1999.90;999.90;;;6.10;99.90;;;;;;5069129;28;20607;-51
2023/04/03 10:55:42;;;;;;;1999.90;999.90;;;6.20;99.90;;;;;;5070120;28;20195;-52
2023/04/03 10:58:20;;;;;;;1999.90;999.90;;;6.20;99.90;;;;;;5069594;28;20319;-52
2023/04/03 11:00:51;;;;;;;1999.90;999.90;;;6.10;99.90;;;;;;5068994;28;20210;-52
2023/04/03 11:03:30;;;;;;;1999.90;999.90;;;6.10;99.90;;;;;;5064569;28;20847;-51
2023/04/03 11:06:02;;;;;;;1999.90;999.90;;;6.10;99.90;;;;;;5069914;28;20262;-52
2023/04/03 11:08:35;;;;;;;1999.90;999.90;;;6.20;99.90;;;;;;5069500;28;20240;-51
2023/04/03 11:11:07;;;;;;;1999.90;999.90;;;6.50;99.90;;;;;;5067253;28;20204;-52
2023/04/03 11:13:41;;;;;;;1999.90;999.90;;;6.60;99.90;;;;;;5031184;28;1082095;-51
2023/04/03 11:16:09;;;;;;;1999.90;999.90;;;6.40;99.90;;;;;;5069483;28;20291;-52
2023/04/03 11:18:44;;;;;;;1999.90;999.90;;;6.50;99.90;;;;;;5059145;28;20413;-52
2023/04/03 11:21:21;;;;;;;1999.90;999.90;;;6.70;99.90;;;;;;5068706;28;20338;-51
2023/04/03 11:23:50;;;;;;;1999.90;999.90;;;6.40;99.90;;;;;;5069752;28;20684;-51
2023/04/03 11:26:21;;;;;;;1999.90;999.90;;;6.20;99.90;;;;;;5070401;28;20617;-52
2023/04/03 11:28:54;;;;;;;1999.90;999.90;;;6.10;99.90;;;;;;5070281;28;20347;-52
2023/04/03 11:31:40;;;;;;;1999.90;999.90;;;5.90;99.90;;;;;;5068700;28;20243;-52
2023/04/03 11:34:19;;;;;;;1999.90;999.90;;;6.10;99.90;;;;;;5069947;28;20208;-51
2023/04/03 11:36:51;;;;;;;1999.90;999.90;;;6.30;99.90;;;;;;5057228;28;20339;-52
2023/04/03 11:39:23;;;;;;;1999.90;999.90;;;6.40;99.90;;;;;;5069984;28;20622;-52
2023/04/03 11:41:52;;;;;;;1999.90;999.90;;;6.40;99.90;;;;;;5056341;28;20270;-52
2023/04/03 11:44:37;;;;;;;1999.90;999.90;;;6.60;99.90;;;;;;5069769;28;20208;-51
2023/04/03 11:47:07;;;;;;;1999.90;999.90;;;6.60;99.90;;;;;;5069738;28;20640;-51
2023/04/03 11:49:57;;;;;;;1999.90;999.90;;;6.70;99.90;;;;;;5069508;28;20229;-52
2023/04/03 11:53:01;;;;;;;1999.90;999.90;;;6.70;99.90;;;;;;5069986;28;20201;-54
2023/04/03 11:55:52;;;;;;;1999.90;999.90;;;6.90;99.90;;;;;;5069721;28;20731;-51
2023/04/03 11:58:22;;;;;;;1999.90;999.90;;;7.00;99.90;;;;;;5069345;28;20225;-51
2023/04/03 12:00:53;;;;;;;1999.90;999.90;;;7.10;99.90;;;;;;5069519;28;20258;-52
2023/04/03 12:03:33;;;;;;;1999.90;999.90;;;7.10;99.90;;;;;;5069509;28;20297;-52
2023/04/03 12:06:35;;;;;;;1999.90;999.90;;;7.00;99.90;;;;;;5062119;28;20292;-52
2023/04/03 12:09:32;;;;;;;1999.90;999.90;;;7.00;99.90;;;;;;5053495;28;20234;-51
2023/04/03 12:12:21;;;;;;;1999.90;996.13;;;6.90;99.90;;;;;;5067484;28;20224;-52
2023/04/03 12:14:50;;;;;;;1999.90;999.90;;;6.90;99.90;;;;;;5057483;28;20212;-51
2023/04/03 12:17:24;;;;;;;1999.90;999.90;;;6.70;99.90;;;;;;5069086;28;20815;-51
2023/04/03 12:19:53;;;;;;;1999.90;999.90;;;6.70;99.90;;;;;;5069099;28;20650;-51
2023/04/03 12:22:22;;;;;;;1999.90;999.90;;;6.70;99.90;;;;;;5069325;28;20236;-52
2023/04/03 12:24:53;;;;;;;1999.90;999.90;;;6.70;99.90;;;;;;5068749;28;20211;-51
2023/04/03 12:27:39;;;;;;;1999.90;999.90;;;6.60;99.90;;;;;;5068831;28;20674;-51
2023/04/03 12:30:19;;;;;;;1999.90;999.90;;;6.60;99.90;;;;;;5068794;28;20670;-52